Time;durP1;ratioP1;P1;durP2;ratioP2;P2;SDS_P1;SDS_P2;PMS_P1;PMS_P2;Temp;Humidity;BMP_temperature;BMP_pressure;BME280_temperature;BME280_humidity;BME280_pressure;Samples;Min_cycle;Max_cycle;Signal;HPM_P1;HPM_P2
2024/03/05 00:00:58;;;;;;;65.32;35.90;;;;;;;6.56;86.94;100655.69;5020380;28;20057;-84
2024/03/05 00:03:28;;;;;;;67.05;35.30;;;;;;;6.47;87.69;100656.31;5020509;28;20081;-85
2024/03/05 00:05:55;;;;;;;61.03;35.95;;;;;;;6.33;87.79;100654.66;5020360;28;20049;-84
2024/03/05 00:08:24;;;;;;;63.03;36.15;;;;;;;6.31;88.43;100653.94;5020018;28;20081;-86
2024/03/05 00:10:53;;;;;;;69.28;36.72;;;;;;;6.30;88.37;100659.31;5018691;28;20140;-82
2024/03/05 00:37:06;;;;;;;69.35;36.88;;;;;;;6.26;88.88;100657.84;5960753;23;20080;-85
2024/03/05 00:39:36;;;;;;;75.15;37.95;;;;;;;6.20;89.00;100663.50;5001437;28;20046;-86
2024/03/05 00:42:11;;;;;;;70.13;36.75;;;;;;;6.16;89.09;100672.53;5000348;28;20054;-88
2024/03/05 00:45:30;;;;;;;69.00;37.55;;;;;;;6.15;89.03;100663.81;4999581;28;20400;-86
2024/03/05 00:51:13;;;;;;;70.47;36.58;;;;;;;6.09;89.41;100669.50;5005782;23;20145;-77
2024/03/05 00:53:42;;;;;;;68.35;38.40;;;;;;;6.03;88.70;100662.88;4996032;28;20108;-78
2024/03/05 00:56:09;;;;;;;70.90;36.90;;;;;;;6.02;88.75;100670.84;4991144;28;20217;-78
2024/03/05 00:58:35;;;;;;;74.50;38.20;;;;;;;5.94;90.17;100663.50;4994309;28;20093;-78
2024/03/05 01:01:03;;;;;;;67.45;36.75;;;;;;;6.02;89.75;100669.03;4994808;28;20053;-78
2024/03/05 01:03:30;;;;;;;76.32;38.00;;;;;;;6.06;88.89;100667.91;4994363;28;20057;-79
2024/03/05 01:05:56;;;;;;;74.03;36.92;;;;;;;6.04;88.68;100671.59;4988600;28;20076;-77
2024/03/05 01:08:23;;;;;;;75.82;38.92;;;;;;;6.08;88.51;100673.06;4991973;28;20367;-80
2024/03/05 01:10:51;;;;;;;72.45;36.92;;;;;;;6.07;88.52;100668.72;4993169;28;20074;-78
2024/03/05 01:13:19;;;;;;;69.80;36.40;;;;;;;6.12;88.49;100665.78;4993963;28;20051;-77
2024/03/05 01:15:46;;;;;;;75.03;37.78;;;;;;;6.08;88.68;100666.03;4978545;28;20513;-77
2024/03/05 01:18:13;;;;;;;78.85;38.83;;;;;;;6.12;88.74;100668.41;4993128;28;20073;-77
2024/03/05 01:20:41;;;;;;;72.47;38.22;;;;;;;6.11;88.78;100664.13;4998282;28;20089;-79
2024/03/05 01:23:10;;;;;;;77.22;37.90;;;;;;;6.16;88.19;100669.91;4998146;28;20038;-79
2024/03/05 01:25:37;;;;;;;72.53;38.80;;;;;;;6.14;88.06;100666.53;4996231;28;20055;-78
2024/03/05 01:28:07;;;;;;;72.90;36.67;;;;;;;6.06;88.21;100662.66;4995719;28;20056;-78
2024/03/05 01:30:34;;;;;;;74.05;38.85;;;;;;;5.98;88.86;100654.47;4996407;28;20143;-78
2024/03/05 01:33:05;;;;;;;72.88;37.95;;;;;;;5.89;89.16;100656.81;4996682;28;20082;-79
2024/03/05 01:35:32;;;;;;;72.20;37.40;;;;;;;5.83;89.46;100656.28;4995244;28;20393;-76
2024/03/05 01:37:59;;;;;;;81.03;38.50;;;;;;;5.80;89.66;100653.03;4991853;28;20097;-78
2024/03/05 01:40:25;;;;;;;79.32;39.55;;;;;;;5.79;90.56;100661.84;4997858;28;20137;-78
2024/03/05 01:42:52;;;;;;;71.10;37.08;;;;;;;5.72;89.85;100660.59;4990928;28;20039;-79
2024/03/05 01:45:20;;;;;;;76.20;38.28;;;;;;;5.65;90.66;100659.31;4992636;28;20071;-78
2024/03/05 01:47:48;;;;;;;79.03;39.17;;;;;;;5.64;90.38;100661.09;4997756;28;20109;-77
2024/03/05 01:50:16;;;;;;;77.75;38.20;;;;;;;5.58;91.04;100661.50;4993907;28;20160;-77
2024/03/05 01:52:44;;;;;;;70.80;37.65;;;;;;;5.61;91.26;100656.03;4990493;28;20054;-78
2024/03/05 01:55:15;;;;;;;78.78;37.95;;;;;;;5.68;90.54;100649.44;4984104;28;20058;-78
2024/03/05 01:57:44;;;;;;;78.57;38.45;;;;;;;5.73;90.12;100649.16;4976854;28;20087;-80
2024/03/05 02:00:15;;;;;;;79.93;37.47;;;;;;;5.77;90.13;100650.63;4982479;28;20074;-79
2024/03/05 02:02:44;;;;;;;82.57;38.88;;;;;;;5.82;90.44;100654.63;4983114;28;20053;-78
2024/03/05 02:05:12;;;;;;;75.03;39.67;;;;;;;5.88;89.39;100655.13;4980035;28;20086;-80
2024/03/05 02:07:40;;;;;;;81.18;39.42;;;;;;;5.94;89.63;100657.38;4981997;28;20055;-78
2024/03/05 02:10:08;;;;;;;79.13;39.72;;;;;;;6.00;89.12;100649.09;4985352;28;20051;-79
2024/03/05 02:12:35;;;;;;;80.07;38.13;;;;;;;5.99;88.76;100656.16;4981099;28;20073;-79
2024/03/05 02:15:02;;;;;;;86.28;40.15;;;;;;;6.02;88.77;100650.66;4976812;28;20055;-79
2024/03/05 02:17:28;;;;;;;81.63;39.67;;;;;;;6.06;88.67;100654.75;4982232;28;20097;-80
2024/03/05 02:19:56;;;;;;;83.88;40.78;;;;;;;6.06;89.12;100649.50;4983670;28;20109;-80
2024/03/05 02:22:24;;;;;;;80.50;42.40;;;;;;;6.06;89.13;100646.88;4982355;28;20537;-80
2024/03/05 02:24:51;;;;;;;86.45;41.40;;;;;;;6.14;88.69;100650.78;4984038;28;20205;-80
2024/03/05 02:27:18;;;;;;;85.50;39.10;;;;;;;6.13;88.68;100647.31;4984386;28;20058;-80
2024/03/05 02:29:45;;;;;;;78.03;39.40;;;;;;;6.12;89.08;100648.28;4983575;28;20074;-80
2024/03/05 02:32:12;;;;;;;82.70;41.13;;;;;;;6.11;88.86;100651.81;4982873;28;20093;-79
2024/03/05 02:34:39;;;;;;;77.90;39.15;;;;;;;6.10;89.18;100646.69;4982925;28;20118;-79
2024/03/05 02:37:07;;;;;;;72.20;38.47;;;;;;;6.10;89.72;100646.69;4981961;28;20062;-79
2024/03/05 02:39:35;;;;;;;79.95;39.05;;;;;;;6.10;89.20;100639.63;4975003;28;20297;-78
2024/03/05 02:42:03;;;;;;;76.13;39.00;;;;;;;6.03;89.62;100641.84;4982727;28;20078;-79
2024/03/05 02:44:30;;;;;;;75.28;38.40;;;;;;;6.02;89.92;100645.41;4982279;28;20074;-79
2024/03/05 02:46:57;;;;;;;78.55;38.53;;;;;;;6.05;90.08;100647.84;4973747;28;20085;-78
2024/03/05 02:49:24;;;;;;;76.82;38.45;;;;;;;6.05;90.19;100652.25;4983619;28;20089;-79
2024/03/05 02:51:51;;;;;;;76.95;38.97;;;;;;;6.04;90.45;100650.56;4982749;28;20046;-79
2024/03/05 02:54:18;;;;;;;83.07;39.28;;;;;;;6.02;90.12;100640.16;4983454;28;20046;-80
2024/03/05 02:56:46;;;;;;;77.25;36.95;;;;;;;5.99;90.50;100644.81;4977210;28;20113;-79
2024/03/05 02:59:13;;;;;;;75.18;38.20;;;;;;;6.01;90.14;100640.25;4983065;28;20085;-79
2024/03/05 03:01:39;;;;;;;71.80;38.83;;;;;;;6.01;90.37;100642.91;4982518;28;20092;-78
2024/03/05 03:04:06;;;;;;;80.68;39.65;;;;;;;6.00;90.92;100649.94;4975948;28;20181;-79
2024/03/05 03:06:33;;;;;;;77.03;38.88;;;;;;;6.00;90.52;100652.56;4983564;28;20508;-79
2024/03/05 03:08:59;;;;;;;72.15;37.75;;;;;;;5.99;91.13;100650.88;4983686;28;20074;-80
2024/03/05 03:11:26;;;;;;;79.78;39.45;;;;;;;6.02;90.51;100650.66;4983699;28;20105;-78
2024/03/05 03:13:55;;;;;;;75.95;38.60;;;;;;;6.07;90.41;100643.34;4981595;28;20134;-80
2024/03/05 03:16:22;;;;;;;73.63;36.50;;;;;;;6.15;90.64;100640.16;4974610;28;20082;-79
2024/03/05 03:18:48;;;;;;;75.07;39.25;;;;;;;6.17;90.44;100647.94;4983619;28;20050;-78
2024/03/05 03:21:15;;;;;;;76.32;37.83;;;;;;;6.25;89.89;100648.25;4984137;28;20090;-80
2024/03/05 03:23:44;;;;;;;74.38;38.15;;;;;;;6.25;89.42;100643.84;4976752;28;20057;-78
2024/03/05 03:26:11;;;;;;;72.68;37.88;;;;;;;6.28;89.29;100645.41;4984537;28;20125;-79
2024/03/05 03:28:38;;;;;;;67.95;36.05;;;;;;;6.26;89.14;100645.53;4983996;28;20078;-80
2024/03/05 03:31:11;;;;;;;73.13;38.65;;;;;;;6.27;89.69;100644.56;4983221;28;20082;-79
2024/03/05 03:33:38;;;;;;;73.45;37.67;;;;;;;6.22;89.53;100643.22;4982507;28;20047;-79
2024/03/05 03:36:05;;;;;;;74.10;37.67;;;;;;;6.19;89.42;100646.88;4981863;28;20057;-79
2024/03/05 03:38:32;;;;;;;72.18;36.70;;;;;;;6.24;89.78;100641.31;4982024;28;20110;-78
2024/03/05 03:40:59;;;;;;;73.55;38.05;;;;;;;6.27;89.70;100649.00;4982502;28;20046;-80
2024/03/05 03:43:25;;;;;;;73.00;37.70;;;;;;;6.29;89.85;100650.56;4976229;28;20047;-79
2024/03/05 03:45:52;;;;;;;78.53;39.45;;;;;;;6.29;89.23;100647.91;4977025;28;20055;-79
2024/03/05 03:48:20;;;;;;;77.72;38.03;;;;;;;6.30;89.21;100647.00;4975050;28;20377;-77
2024/03/05 03:50:47;;;;;;;80.00;39.30;;;;;;;6.33;89.08;100653.81;4977340;28;20113;-77
2024/03/05 03:53:13;;;;;;;71.57;37.78;;;;;;;6.45;88.49;100646.88;4974687;28;20051;-78
2024/03/05 03:55:40;;;;;;;74.05;37.72;;;;;;;6.38;89.14;100651.69;4975940;28;20137;-77
2024/03/05 03:58:07;;;;;;;75.97;37.78;;;;;;;6.30;89.47;100648.78;4976060;28;20082;-79
2024/03/05 04:00:33;;;;;;;74.55;37.97;;;;;;;6.42;88.73;100636.56;4975826;28;20130;-79
2024/03/05 04:03:00;;;;;;;73.95;37.85;;;;;;;6.34;89.29;100645.00;4974014;28;20086;-77
2024/03/05 04:05:28;;;;;;;74.85;39.00;;;;;;;6.29;89.61;100658.44;4973413;28;20055;-78
2024/03/05 04:07:55;;;;;;;77.20;37.33;;;;;;;6.25;90.13;100657.00;4975965;28;20134;-79
2024/03/05 04:10:22;;;;;;;77.28;37.75;;;;;;;6.20;90.17;100647.72;4975738;28;20118;-78
2024/03/05 04:12:50;;;;;;;78.10;37.42;;;;;;;6.26;90.11;100658.66;4975077;28;20101;-78
2024/03/05 04:15:18;;;;;;;74.30;38.67;;;;;;;6.26;89.73;100658.66;4975731;28;20054;-78
2024/03/05 04:17:45;;;;;;;77.85;37.88;;;;;;;6.33;89.88;100667.78;4959890;28;20054;-78
2024/03/05 04:20:14;;;;;;;75.20;39.90;;;;;;;6.32;89.42;100662.66;4974882;28;20078;-78
2024/03/05 04:22:42;;;;;;;74.00;37.47;;;;;;;6.30;89.17;100659.31;4974717;28;20509;-79
2024/03/05 04:25:09;;;;;;;76.30;38.15;;;;;;;6.28;89.37;100661.19;4970066;28;20054;-78
2024/03/05 04:27:41;;;;;;;77.65;39.15;;;;;;;6.17;90.04;100668.97;4968514;28;20487;-78
2024/03/05 04:30:10;;;;;;;77.88;38.95;;;;;;;6.14;90.49;100656.03;4975435;28;20110;-78
2024/03/05 04:32:40;;;;;;;76.13;39.55;;;;;;;6.13;90.51;100670.13;4973655;28;20133;-79
2024/03/05 04:35:11;;;;;;;78.00;39.00;;;;;;;6.07;90.87;100668.72;4974811;28;20122;-80
2024/03/05 04:37:38;;;;;;;79.75;39.80;;;;;;;6.10;91.45;100678.22;4984368;28;20062;-79
2024/03/05 04:40:10;;;;;;;77.75;39.83;;;;;;;6.09;91.55;100672.13;4983190;28;20053;-79
2024/03/05 04:42:36;;;;;;;81.25;38.35;;;;;;;6.12;91.57;100671.03;4980147;28;20191;-78
2024/03/05 04:45:03;;;;;;;84.97;41.00;;;;;;;5.96;92.01;100656.34;4969641;28;20137;-78
2024/03/05 04:47:30;;;;;;;88.15;42.58;;;;;;;6.15;91.58;100671.69;4975572;28;20093;-77
2024/03/05 04:49:57;;;;;;;80.57;39.08;;;;;;;6.16;91.73;100667.28;4975101;28;20129;-78
2024/03/05 04:52:24;;;;;;;84.20;40.40;;;;;;;6.21;91.50;100673.06;4972579;28;20689;-78
2024/03/05 04:54:50;;;;;;;88.93;42.20;;;;;;;6.21;91.67;100673.06;4974530;28;20082;-78
2024/03/05 04:57:19;;;;;;;89.95;41.05;;;;;;;6.21;91.45;100673.91;4974581;28;20418;-79
2024/03/05 04:59:46;;;;;;;92.70;41.22;;;;;;;6.24;91.83;100675.47;4966801;28;20082;-78
2024/03/05 05:02:13;;;;;;;87.70;42.85;;;;;;;6.27;91.30;100670.84;4978229;28;20074;-80
2024/03/05 05:04:41;;;;;;;90.82;41.40;;;;;;;6.30;91.04;100681.16;4976820;28;20386;-78
2024/03/05 05:07:08;;;;;;;88.05;41.28;;;;;;;6.32;91.33;100675.78;4975659;28;20063;-79
2024/03/05 05:09:35;;;;;;;82.45;41.15;;;;;;;6.35;91.58;100680.00;4977245;28;20051;-77
2024/03/05 05:12:02;;;;;;;89.10;41.97;;;;;;;6.32;91.62;100674.00;4973247;28;20224;-78
2024/03/05 05:14:30;;;;;;;93.80;41.85;;;;;;;6.32;91.48;100683.69;4973815;28;20592;-78
2024/03/05 05:16:58;;;;;;;88.70;42.83;;;;;;;6.39;91.28;100684.94;4974022;28;20150;-78
2024/03/05 05:19:25;;;;;;;93.00;42.50;;;;;;;6.38;91.50;100683.25;4974244;28;20057;-78
2024/03/05 05:21:52;;;;;;;94.60;42.25;;;;;;;6.41;91.82;100687.47;4974613;28;20114;-78
2024/03/05 05:24:19;;;;;;;87.45;42.97;;;;;;;6.44;91.37;100677.59;4973894;28;20449;-78
2024/03/05 05:26:46;;;;;;;88.95;41.95;;;;;;;6.48;91.05;100681.69;4975805;28;20496;-77
2024/03/05 05:29:13;;;;;;;86.68;41.58;;;;;;;6.52;90.71;100664.75;4974662;28;20051;-78
2024/03/05 05:31:41;;;;;;;85.78;42.60;;;;;;;6.50;90.63;100673.69;4968125;28;20050;-78
2024/03/05 05:34:08;;;;;;;85.15;41.28;;;;;;;6.47;91.01;100672.09;4974981;28;20131;-78
2024/03/05 05:36:35;;;;;;;82.03;40.03;;;;;;;6.48;91.60;100670.31;4966755;28;20131;-78
2024/03/05 05:39:02;;;;;;;88.68;43.28;;;;;;;6.51;91.31;100673.56;4976739;28;20078;-78
2024/03/05 05:41:29;;;;;;;85.47;41.17;;;;;;;6.53;91.23;100676.09;4973415;28;20126;-78
2024/03/05 05:43:56;;;;;;;81.30;40.15;;;;;;;6.56;91.55;100671.47;4970422;28;20141;-78
2024/03/05 05:46:23;;;;;;;86.93;41.00;;;;;;;6.62;90.59;100672.81;4974146;28;20142;-78
2024/03/05 05:48:52;;;;;;;84.00;39.90;;;;;;;6.63;90.80;100676.28;4977944;28;20122;-78
2024/03/05 05:51:21;;;;;;;90.45;42.08;;;;;;;6.66;90.76;100676.09;4979064;28;20050;-78
2024/03/05 05:53:51;;;;;;;84.88;40.90;;;;;;;6.67;90.59;100678.59;4976963;28;20050;-78
2024/03/05 05:56:18;;;;;;;84.10;40.03;;;;;;;6.65;90.51;100680.47;4973847;28;20054;-76
2024/03/05 05:58:45;;;;;;;84.78;41.20;;;;;;;6.72;90.42;100686.16;4976017;28;20340;-77
2024/03/05 06:01:13;;;;;;;89.82;43.00;;;;;;;6.69;90.42;100681.09;4975851;28;20501;-77
2024/03/05 06:03:44;;;;;;;90.15;41.17;;;;;;;6.55;91.25;100677.66;4973146;28;20052;-79
2024/03/05 06:06:16;;;;;;;90.50;41.42;;;;;;;6.56;91.13;100689.88;4972099;28;20113;-77
2024/03/05 06:08:45;;;;;;;90.28;41.45;;;;;;;6.58;91.01;100684.50;4975791;28;20046;-78
2024/03/05 06:11:12;;;;;;;90.72;42.17;;;;;;;6.64;91.32;100688.47;4975968;28;20051;-77
2024/03/05 06:13:38;;;;;;;87.68;41.63;;;;;;;6.69;91.50;100691.63;4977391;28;20051;-78
2024/03/05 06:16:07;;;;;;;88.28;41.50;;;;;;;6.67;91.36;100686.50;4975166;28;20057;-79
2024/03/05 06:18:35;;;;;;;83.40;40.22;;;;;;;6.67;90.93;100689.13;4967118;28;20101;-78
2024/03/05 06:21:02;;;;;;;95.93;41.67;;;;;;;6.54;91.11;100691.75;4975175;28;20054;-76
2024/03/05 06:23:30;;;;;;;86.88;42.80;;;;;;;6.54;91.75;100702.28;4967451;28;20048;-79
2024/03/05 06:25:58;;;;;;;81.45;41.30;;;;;;;6.54;91.43;100702.28;4975566;28;20160;-78
2024/03/05 06:28:25;;;;;;;87.30;41.45;;;;;;;6.51;91.73;100702.47;4979042;28;20368;-79
2024/03/05 06:30:52;;;;;;;88.63;41.00;;;;;;;6.53;91.69;100702.38;4969765;28;20065;-78
2024/03/05 06:33:19;;;;;;;82.60;38.58;;;;;;;6.52;92.34;100712.06;4977585;28;20133;-79
2024/03/05 06:35:46;;;;;;;89.50;40.80;;;;;;;6.52;92.25;100706.81;4973522;28;20480;-79
2024/03/05 06:38:15;;;;;;;87.07;42.35;;;;;;;6.64;91.47;100707.72;4980111;28;20461;-79
2024/03/05 06:40:43;;;;;;;92.55;41.65;;;;;;;6.70;90.83;100711.75;4979676;28;20047;-81
2024/03/05 06:43:15;;;;;;;90.85;40.70;;;;;;;6.63;91.58;100703.41;4980911;28;20430;-80
2024/03/05 06:45:42;;;;;;;93.25;41.35;;;;;;;6.58;91.74;100705.53;4977829;28;20058;-79
2024/03/05 06:48:12;;;;;;;88.90;41.35;;;;;;;6.61;92.07;100701.84;4975915;28;20084;-79
2024/03/05 06:58:54;;;;;;;87.90;40.15;;;;;;;6.74;91.23;100711.41;4983558;28;20070;-83
2024/03/05 07:01:22;;;;;;;87.97;41.00;;;;;;;6.69;92.10;100710.03;4992208;28;20061;-83
2024/03/05 07:04:03;;;;;;;89.95;40.30;;;;;;;6.71;92.49;100716.03;4984791;28;20074;-83
2024/03/05 07:06:40;;;;;;;87.78;40.88;;;;;;;6.69;91.85;100723.19;5002462;28;20054;-83
2024/03/05 07:09:51;;;;;;;;;;;;;;;;;;;;;
2024/03/05 07:12:40;;;;;;;84.57;39.60;;;;;;;6.88;91.70;100718.34;4973590;28;20106;-82
2024/03/05 07:16:13;;;;;;;;;;;;;;;;;;;;;
2024/03/05 07:32:05;;;;;;;91.53;39.17;;;;;;;6.97;91.12;100727.38;4939804;29;20055;-84
2024/03/05 07:34:34;;;;;;;92.15;40.65;;;;;;;7.03;91.23;100730.41;4992151;28;20069;-85
2024/03/05 07:37:01;;;;;;;87.95;40.83;;;;;;;6.97;90.89;100725.56;5006149;28;20050;-83
2024/03/05 07:39:28;;;;;;;92.68;41.65;;;;;;;6.98;90.92;100740.41;5001639;28;20042;-85
2024/03/05 07:41:55;;;;;;;86.22;41.20;;;;;;;6.96;91.94;100734.41;4997219;28;20050;-83
2024/03/05 07:44:26;;;;;;;86.13;40.45;;;;;;;6.99;91.19;100731.56;4994899;28;20046;-82
2024/03/05 07:46:53;;;;;;;97.72;41.83;;;;;;;6.93;91.40;100729.38;5003279;28;20058;-82
2024/03/05 07:49:24;;;;;;;91.13;41.35;;;;;;;6.93;91.56;100739.91;5003060;28;20046;-83
2024/03/05 07:51:53;;;;;;;89.35;40.50;;;;;;;6.87;92.33;100736.84;5001684;28;20143;-83
2024/03/05 07:54:30;;;;;;;96.38;42.53;;;;;;;6.79;92.23;100725.09;5002601;28;20078;-83
2024/03/05 07:57:01;;;;;;;90.32;41.75;;;;;;;6.90;92.34;100734.84;5003720;28;20232;-83
2024/03/05 07:59:30;;;;;;;92.53;41.58;;;;;;;6.95;91.80;100735.34;5003284;28;20058;-83
2024/03/05 08:01:57;;;;;;;95.00;43.15;;;;;;;6.93;91.81;100737.25;5001915;28;20476;-82
2024/03/05 08:04:34;;;;;;;90.50;40.60;;;;;;;7.03;92.32;100740.09;5001433;28;20042;-80
2024/03/05 08:07:01;;;;;;;92.55;40.65;;;;;;;7.00;91.66;100738.50;5000544;28;20057;-81
2024/03/05 08:09:39;;;;;;;95.13;42.95;;;;;;;7.04;91.50;100734.69;4984035;28;20055;-82
2024/03/05 08:12:09;;;;;;;98.70;42.72;;;;;;;7.04;91.62;100739.13;4980423;28;20122;-81
2024/03/05 08:14:41;;;;;;;95.97;41.85;;;;;;;6.93;92.42;100739.91;4980033;28;20394;-82
2024/03/05 08:17:13;;;;;;;97.43;43.00;;;;;;;6.90;93.19;100741.91;4993786;28;20053;-81
2024/03/05 08:19:45;;;;;;;101.65;45.50;;;;;;;6.95;92.67;100745.03;5000968;28;20085;-80
2024/03/05 08:22:27;;;;;;;100.37;43.53;;;;;;;6.96;92.95;100742.28;4985013;28;20079;-82
2024/03/05 08:25:02;;;;;;;97.30;42.03;;;;;;;7.04;92.83;100747.84;4982177;28;20300;-81
2024/03/05 08:27:38;;;;;;;96.22;41.55;;;;;;;7.12;92.10;100747.31;4982295;28;20138;-81
2024/03/05 08:30:16;;;;;;;98.47;43.92;;;;;;;7.14;92.53;100755.09;4982394;28;20058;-81
2024/03/05 08:32:44;;;;;;;93.97;39.78;;;;;;;7.16;92.54;100754.06;4995976;28;20070;-81
2024/03/05 08:35:12;;;;;;;94.95;41.80;;;;;;;7.23;91.78;100754.44;4994362;28;20081;-81
2024/03/05 08:37:43;;;;;;;97.57;43.80;;;;;;;7.17;92.92;100754.88;5000305;28;20058;-82
2024/03/05 08:40:13;;;;;;;99.78;42.10;;;;;;;7.13;92.51;100745.53;5000468;28;20405;-81
2024/03/05 08:42:42;;;;;;;98.95;43.38;;;;;;;7.20;92.37;100749.41;5000278;28;20110;-83
2024/03/05 08:45:13;;;;;;;95.10;41.35;;;;;;;7.20;92.75;100759.94;5000142;28;20197;-83
2024/03/05 08:47:42;;;;;;;93.17;41.90;;;;;;;7.18;94.07;100752.13;4999965;28;20050;-84
2024/03/05 08:50:12;;;;;;;90.25;41.97;;;;;;;7.18;94.20;100757.41;4999811;28;20190;-82
2024/03/05 08:52:42;;;;;;;94.20;42.05;;;;;;;7.19;94.41;100758.22;5000013;28;20082;-83
2024/03/05 08:55:10;;;;;;;97.18;44.22;;;;;;;7.15;94.32;100755.00;5000687;28;20500;-81
2024/03/05 08:57:41;;;;;;;95.50;43.58;;;;;;;7.12;94.53;100765.75;4992849;28;20089;-83
2024/03/05 09:00:14;;;;;;;93.28;43.47;;;;;;;7.15;93.87;100767.34;5000517;28;20050;-83
2024/03/05 09:02:42;;;;;;;92.07;41.22;;;;;;;7.21;94.61;100772.97;4999666;28;20050;-83
2024/03/05 09:05:10;;;;;;;94.82;43.22;;;;;;;7.21;94.45;100780.03;5000006;28;20077;-83
2024/03/05 09:07:37;;;;;;;94.35;43.30;;;;;;;7.21;95.10;100774.78;5004259;28;20065;-81
2024/03/05 09:10:07;;;;;;;94.00;41.50;;;;;;;7.25;94.82;100776.25;5007832;28;20432;-83
2024/03/05 09:12:34;;;;;;;95.63;41.80;;;;;;;7.34;94.41;100791.38;5006312;28;20050;-83
2024/03/05 09:15:02;;;;;;;95.63;42.97;;;;;;;7.44;93.85;100784.50;5002446;28;20496;-83
2024/03/05 09:17:31;;;;;;;104.35;43.90;;;;;;;7.24;95.50;100790.38;5001944;28;20050;-82
2024/03/05 09:19:59;;;;;;;91.18;41.47;;;;;;;7.44;94.03;100784.50;5001729;28;20412;-83
2024/03/05 09:22:26;;;;;;;98.57;44.10;;;;;;;7.35;95.30;100795.69;5002063;28;20077;-82
2024/03/05 09:24:52;;;;;;;91.85;43.53;;;;;;;7.33;95.88;100784.44;5003359;28;20047;-82
2024/03/05 09:27:19;;;;;;;92.80;42.25;;;;;;;7.33;95.19;100792.34;5001180;28;20069;-83
2024/03/05 09:29:47;;;;;;;91.55;42.40;;;;;;;7.32;95.34;100791.50;5000385;28;20050;-82
2024/03/05 09:32:14;;;;;;;89.97;42.65;;;;;;;7.41;95.13;100795.28;4999734;28;20133;-82
2024/03/05 09:34:45;;;;;;;93.65;43.38;;;;;;;7.41;95.49;100790.00;4999666;28;20191;-82
2024/03/05 09:37:16;;;;;;;97.85;44.03;;;;;;;7.40;96.07;100788.28;4999947;28;20089;-82
2024/03/05 09:39:42;;;;;;;99.50;42.67;;;;;;;7.40;96.00;100798.84;4999936;28;20050;-82
2024/03/05 09:42:10;;;;;;;91.88;44.03;;;;;;;7.43;95.43;100789.88;4999966;28;20074;-83
2024/03/05 09:44:40;;;;;;;87.88;39.83;;;;;;;7.46;95.52;100798.41;5000038;28;20101;-83
2024/03/05 09:47:09;;;;;;;101.65;45.28;;;;;;;7.47;95.82;100793.97;5000075;28;20047;-81
2024/03/05 09:49:42;;;;;;;87.88;42.78;;;;;;;7.52;95.74;100799.75;5000993;28;20141;-83
2024/03/05 09:52:11;;;;;;;94.35;41.88;;;;;;;7.46;96.21;100800.22;4999699;28;20133;-82
2024/03/05 09:54:38;;;;;;;92.93;41.83;;;;;;;7.47;96.16;100801.88;4999288;28;20058;-83
2024/03/05 09:57:06;;;;;;;88.03;40.78;;;;;;;7.47;96.09;100810.63;5000290;28;20065;-82
2024/03/05 09:59:32;;;;;;;98.28;45.42;;;;;;;7.43;96.36;100811.78;4999752;28;20111;-83
2024/03/05 10:02:00;;;;;;;87.72;41.10;;;;;;;7.52;96.10;100810.28;4998393;28;20054;-84
2024/03/05 10:04:31;;;;;;;98.97;43.17;;;;;;;7.54;96.76;100805.75;4998889;28;20125;-82
2024/03/05 10:07:04;;;;;;;94.20;40.80;;;;;;;7.60;96.46;100815.84;4990604;28;20050;-82
2024/03/05 10:09:34;;;;;;;93.82;41.92;;;;;;;7.56;96.87;100814.38;4999814;28;20120;-83
2024/03/05 10:12:03;;;;;;;100.25;43.88;;;;;;;7.53;97.21;100814.59;4999064;28;20046;-83
2024/03/05 10:14:29;;;;;;;93.68;41.45;;;;;;;7.62;96.70;100813.09;4999987;28;20050;-82
2024/03/05 10:17:01;;;;;;;88.35;41.35;;;;;;;7.72;96.43;100817.56;4999361;28;20057;-83
2024/03/05 10:19:27;;;;;;;88.85;41.97;;;;;;;7.79;96.30;100810.91;4999961;28;20125;-82
2024/03/05 10:21:54;;;;;;;96.00;43.47;;;;;;;7.84;95.46;100811.41;5000797;28;20476;-83
2024/03/05 10:24:30;;;;;;;92.97;43.65;;;;;;;7.95;94.90;100815.09;5000015;28;20043;-83
2024/03/05 10:26:58;;;;;;;88.90;42.28;;;;;;;7.98;94.59;100810.41;5000315;28;20082;-82
2024/03/05 10:29:37;;;;;;;86.93;41.33;;;;;;;7.99;95.46;100817.38;5001897;28;20524;-83
2024/03/05 10:32:04;;;;;;;88.15;40.53;;;;;;;7.96;96.03;100819.41;4995547;28;20073;-83
2024/03/05 10:34:31;;;;;;;87.90;39.65;;;;;;;8.06;95.67;100810.69;5006695;28;20070;-83
2024/03/05 10:37:04;;;;;;;82.78;40.13;;;;;;;8.13;95.13;100824.28;5009058;28;20044;-82
2024/03/05 10:39:31;;;;;;;91.25;41.05;;;;;;;8.10;94.71;100817.41;5013524;28;20054;-82
2024/03/05 10:42:01;;;;;;;85.25;39.58;;;;;;;8.13;95.34;100818.16;5013045;28;20057;-82
2024/03/05 10:44:29;;;;;;;80.18;38.28;;;;;;;8.10;95.47;100820.06;5004044;28;20054;-83
2024/03/05 10:46:56;;;;;;;86.68;41.42;;;;;;;8.13;95.41;100828.72;4996614;28;20046;-83
2024/03/05 10:49:24;;;;;;;80.80;40.47;;;;;;;8.25;94.75;100822.50;5002673;28;20132;-84
2024/03/05 10:51:52;;;;;;;83.30;40.40;;;;;;;8.15;95.19;100827.63;5002143;28;20057;-83
2024/03/05 10:54:23;;;;;;;80.90;38.03;;;;;;;8.17;95.61;100827.50;5002173;28;20054;-83
2024/03/05 10:56:52;;;;;;;75.53;37.80;;;;;;;8.15;95.29;100824.16;5002091;28;20077;-83
2024/03/05 10:59:34;;;;;;;80.70;38.58;;;;;;;8.23;95.63;100819.16;5002649;28;20113;-83
2024/03/05 11:02:01;;;;;;;79.32;38.63;;;;;;;8.20;95.73;100827.28;4996009;28;20140;-83
2024/03/05 11:04:32;;;;;;;74.63;36.25;;;;;;;8.26;95.32;100826.81;5001615;28;20544;-83
2024/03/05 11:06:59;;;;;;;76.50;37.67;;;;;;;8.19;95.83;100826.44;5001621;28;20054;-84
2024/03/05 11:09:27;;;;;;;76.95;37.53;;;;;;;8.30;95.43;100820.34;5001935;28;20111;-82
2024/03/05 11:12:01;;;;;;;76.70;37.15;;;;;;;8.21;96.48;100832.41;5001401;28;20060;-83
2024/03/05 11:14:31;;;;;;;77.47;37.25;;;;;;;8.17;96.10;100831.00;5001666;28;20112;-83
2024/03/05 11:16:58;;;;;;;74.03;36.80;;;;;;;8.23;95.70;100829.69;5001761;28;20054;-84
2024/03/05 11:19:26;;;;;;;68.07;34.42;;;;;;;8.28;96.07;100827.56;4994994;28;20121;-84
2024/03/05 11:21:54;;;;;;;55.60;31.08;;;;;;;8.33;94.26;100825.41;5001986;28;20050;-82
2024/03/05 11:24:21;;;;;;;57.80;30.67;;;;;;;8.33;94.96;100826.25;5001695;28;20060;-84
2024/03/05 11:26:49;;;;;;;55.17;28.65;;;;;;;8.27;93.90;100831.16;5002829;28;20081;-84
2024/03/05 11:29:37;;;;;;;53.63;29.48;;;;;;;8.37;94.22;100831.34;5002013;28;20077;-83
2024/03/05 11:32:04;;;;;;;43.13;26.20;;;;;;;8.36;93.38;100822.56;4996004;28;20054;-84
2024/03/05 11:34:34;;;;;;;48.80;27.13;;;;;;;8.35;92.66;100829.63;5001283;28;20061;-84
2024/03/05 11:37:08;;;;;;;48.47;27.48;;;;;;;8.29;92.45;100835.34;5002342;28;20054;-84
2024/03/05 11:39:41;;;;;;;53.63;26.80;;;;;;;8.26;93.40;100835.59;5001037;28;20081;-83
2024/03/05 11:42:16;;;;;;;45.05;26.25;;;;;;;8.40;92.49;100834.59;5000960;28;20074;-84
2024/03/05 11:44:54;;;;;;;46.92;27.15;;;;;;;8.33;92.01;100833.31;5001716;28;20109;-82
2024/03/05 11:47:22;;;;;;;48.55;25.23;;;;;;;8.40;91.97;100831.94;5001279;28;20081;-83
2024/03/05 11:49:51;;;;;;;45.97;24.65;;;;;;;8.34;91.23;100837.63;5000916;28;20490;-83
2024/03/05 11:52:22;;;;;;;42.47;24.48;;;;;;;8.39;91.72;100843.44;5001294;28;20580;-82
2024/03/05 11:55:05;;;;;;;42.88;24.45;;;;;;;8.40;90.35;100845.13;5001293;28;20378;-83
2024/03/05 11:57:32;;;;;;;;;;;;;;;8.43;91.74;100836.13;5002717;28;20051;-84
2024/03/05 12:00:00;;;;;;;35.95;23.40;;;;;;;8.29;91.94;100845.03;5006584;28;19930;-85
2024/03/05 12:02:30;;;;;;;45.58;26.20;;;;;;;8.41;91.39;100835.41;5007019;28;20082;-82
2024/03/05 12:05:04;;;;;;;43.88;25.13;;;;;;;8.50;90.93;100840.00;5003047;28;20050;-83
2024/03/05 12:07:30;;;;;;;46.03;24.33;;;;;;;8.57;90.08;100839.44;5006327;28;20078;-84
2024/03/05 12:09:57;;;;;;;37.38;22.73;;;;;;;8.53;91.38;100837.97;5006686;28;20515;-83
2024/03/05 12:12:24;;;;;;;38.30;23.25;;;;;;;8.68;90.68;100832.50;5005992;28;20078;-82
2024/03/05 12:14:54;;;;;;;41.13;23.55;;;;;;;8.77;89.47;100831.78;5007692;28;20100;-83
2024/03/05 12:17:23;;;;;;;38.38;22.52;;;;;;;8.75;90.22;100836.31;5005862;28;20050;-83